sensor_id;sensor_type;location;lat;lon;timestamp;P1;durP1;ratioP1;P2;durP2;ratioP2
23555;SDS011;11956;53.184;8.578;2022-08-11T00:01:32;3.70;;;2.95;;
23555;SDS011;11956;53.184;8.578;2022-08-11T00:04:33;3.05;;;2.58;;
23555;SDS011;11956;53.184;8.578;2022-08-11T00:07:52;6.53;;;3.13;;
23555;SDS011;11956;53.184;8.578;2022-08-11T00:11:00;4.15;;;2.80;;
23555;SDS011;11956;53.184;8.578;2022-08-11T00:14:12;4.20;;;2.60;;
23555;SDS011;11956;53.184;8.578;2022-08-11T00:17:17;3.50;;;2.80;;
23555;SDS011;11956;53.184;8.578;2022-08-11T00:20:18;3.88;;;2.83;;
23555;SDS011;11956;53.184;8.578;2022-08-11T00:23:19;4.28;;;3.00;;
23555;SDS011;11956;53.184;8.578;2022-08-11T00:26:21;4.70;;;2.90;;
23555;SDS011;11956;53.184;8.578;2022-08-11T00:29:24;3.35;;;2.67;;
23555;SDS011;11956;53.184;8.578;2022-08-11T00:32:26;4.00;;;2.97;;
23555;SDS011;11956;53.184;8.578;2022-08-11T00:35:29;4.68;;;3.20;;
23555;SDS011;11956;53.184;8.578;2022-08-11T00:38:32;5.60;;;3.33;;
23555;SDS011;11956;53.184;8.578;2022-08-11T00:41:46;3.95;;;2.95;;
23555;SDS011;11956;53.184;8.578;2022-08-11T00:45:38;3.63;;;3.13;;
23555;SDS011;11956;53.184;8.578;2022-08-11T01:00:13;7.50;;;3.53;;
23555;SDS011;11956;53.184;8.578;2022-08-11T01:21:43;4.63;;;2.67;;
23555;SDS011;11956;53.184;8.578;2022-08-11T01:50:03;3.60;;;2.65;;
23555;SDS011;11956;53.184;8.578;2022-08-11T02:00:28;3.60;;;2.35;;
23555;SDS011;11956;53.184;8.578;2022-08-11T02:03:44;5.18;;;2.90;;
23555;SDS011;11956;53.184;8.578;2022-08-11T02:14:28;5.68;;;3.40;;
23555;SDS011;11956;53.184;8.578;2022-08-11T02:18:03;6.75;;;3.33;;
23555;SDS011;11956;53.184;8.578;2022-08-11T02:21:45;5.70;;;3.35;;
23555;SDS011;11956;53.184;8.578;2022-08-11T02:25:36;7.20;;;3.33;;
23555;SDS011;11956;53.184;8.578;2022-08-11T02:39:18;4.78;;;2.80;;
23555;SDS011;11956;53.184;8.578;2022-08-11T02:42:25;5.38;;;2.80;;
23555;SDS011;11956;53.184;8.578;2022-08-11T03:13:24;5.28;;;4.43;;
23555;SDS011;11956;53.184;8.578;2022-08-11T03:20:50;5.35;;;2.70;;
23555;SDS011;11956;53.184;8.578;2022-08-11T03:24:03;4.53;;;3.17;;
23555;SDS011;11956;53.184;8.578;2022-08-11T03:30:45;6.35;;;3.80;;
23555;SDS011;11956;53.184;8.578;2022-08-11T03:34:00;4.60;;;3.22;;
23555;SDS011;11956;53.184;8.578;2022-08-11T03:41:03;3.60;;;3.25;;
23555;SDS011;11956;53.184;8.578;2022-08-11T04:20:42;5.60;;;3.88;;
23555;SDS011;11956;53.184;8.578;2022-08-11T04:30:27;10.13;;;4.00;;
23555;SDS011;11956;53.184;8.578;2022-08-11T04:34:02;4.95;;;3.45;;
23555;SDS011;11956;53.184;8.578;2022-08-11T04:56:17;3.75;;;2.50;;
23555;SDS011;11956;53.184;8.578;2022-08-11T04:59:52;5.25;;;2.63;;
23555;SDS011;11956;53.184;8.578;2022-08-11T05:11:39;5.15;;;2.17;;
23555;SDS011;11956;53.184;8.578;2022-08-11T05:15:17;3.67;;;1.98;;
23555;SDS011;11956;53.184;8.578;2022-08-11T05:19:03;6.35;;;2.40;;
23555;SDS011;11956;53.184;8.578;2022-08-11T05:22:27;4.05;;;2.00;;
23555;SDS011;11956;53.184;8.578;2022-08-11T05:25:48;2.83;;;1.60;;
23555;SDS011;11956;53.184;8.578;2022-08-11T05:29:24;5.15;;;1.92;;
23555;SDS011;11956;53.184;8.578;2022-08-11T05:33:07;3.95;;;1.70;;
23555;SDS011;11956;53.184;8.578;2022-08-11T05:40:10;2.65;;;1.60;;
23555;SDS011;11956;53.184;8.578;2022-08-11T05:43:32;4.47;;;1.98;;
23555;SDS011;11956;53.184;8.578;2022-08-11T05:46:53;3.70;;;1.70;;
23555;SDS011;11956;53.184;8.578;2022-08-11T05:50:14;2.72;;;1.45;;
23555;SDS011;11956;53.184;8.578;2022-08-11T05:53:42;3.30;;;1.53;;
23555;SDS011;11956;53.184;8.578;2022-08-11T05:57:18;6.15;;;2.05;;
23555;SDS011;11956;53.184;8.578;2022-08-11T06:00:22;4.93;;;1.50;;
23555;SDS011;11956;53.184;8.578;2022-08-11T06:03:26;4.32;;;1.65;;
23555;SDS011;11956;53.184;8.578;2022-08-11T06:06:29;4.18;;;1.73;;
23555;SDS011;11956;53.184;8.578;2022-08-11T06:12:43;5.72;;;1.33;;
23555;SDS011;11956;53.184;8.578;2022-08-11T06:15:46;4.18;;;1.60;;
23555;SDS011;11956;53.184;8.578;2022-08-11T06:18:51;3.70;;;1.80;;
23555;SDS011;11956;53.184;8.578;2022-08-11T06:21:52;3.00;;;1.77;;
23555;SDS011;11956;53.184;8.578;2022-08-11T06:24:58;3.95;;;1.98;;
23555;SDS011;11956;53.184;8.578;2022-08-11T06:28:02;6.53;;;2.30;;
23555;SDS011;11956;53.184;8.578;2022-08-11T06:31:19;3.70;;;1.88;;
23555;SDS011;11956;53.184;8.578;2022-08-11T06:40:59;4.68;;;1.70;;
23555;SDS011;11956;53.184;8.578;2022-08-11T06:44:26;3.53;;;1.70;;
23555;SDS011;11956;53.184;8.578;2022-08-11T06:47:33;4.95;;;1.73;;
23555;SDS011;11956;53.184;8.578;2022-08-11T06:50:35;3.28;;;1.40;;
23555;SDS011;11956;53.184;8.578;2022-08-11T06:53:56;4.60;;;1.67;;
23555;SDS011;11956;53.184;8.578;2022-08-11T06:57:00;5.35;;;1.83;;
23555;SDS011;11956;53.184;8.578;2022-08-11T07:00:23;4.75;;;1.98;;
23555;SDS011;11956;53.184;8.578;2022-08-11T07:03:29;3.38;;;1.90;;
23555;SDS011;11956;53.184;8.578;2022-08-11T07:06:39;5.10;;;2.03;;
23555;SDS011;11956;53.184;8.578;2022-08-11T07:10:40;3.33;;;1.90;;
23555;SDS011;11956;53.184;8.578;2022-08-11T07:14:32;6.72;;;2.50;;
23555;SDS011;11956;53.184;8.578;2022-08-11T07:17:52;4.22;;;2.00;;
23555;SDS011;11956;53.184;8.578;2022-08-11T07:21:28;5.13;;;2.08;;
23555;SDS011;11956;53.184;8.578;2022-08-11T07:25:05;4.38;;;2.33;;
23555;SDS011;11956;53.184;8.578;2022-08-11T07:28:31;6.32;;;2.40;;
23555;SDS011;11956;53.184;8.578;2022-08-11T07:31:52;7.45;;;2.35;;
23555;SDS011;11956;53.184;8.578;2022-08-11T07:35:14;5.00;;;1.80;;
23555;SDS011;11956;53.184;8.578;2022-08-11T07:38:22;6.93;;;1.92;;
23555;SDS011;11956;53.184;8.578;2022-08-11T07:41:42;3.22;;;1.90;;
23555;SDS011;11956;53.184;8.578;2022-08-11T07:44:44;5.00;;;1.95;;
23555;SDS011;11956;53.184;8.578;2022-08-11T07:48:05;6.13;;;2.50;;
23555;SDS011;11956;53.184;8.578;2022-08-11T07:51:27;6.05;;;2.65;;
23555;SDS011;11956;53.184;8.578;2022-08-11T07:54:47;4.20;;;2.00;;
23555;SDS011;11956;53.184;8.578;2022-08-11T07:57:48;5.00;;;2.17;;
23555;SDS011;11956;53.184;8.578;2022-08-11T08:01:07;4.47;;;2.72;;
23555;SDS011;11956;53.184;8.578;2022-08-11T08:04:36;3.85;;;2.40;;
23555;SDS011;11956;53.184;8.578;2022-08-11T08:07:59;10.25;;;2.85;;
23555;SDS011;11956;53.184;8.578;2022-08-11T08:11:18;3.95;;;1.80;;
23555;SDS011;11956;53.184;8.578;2022-08-11T08:14:39;3.58;;;1.60;;
23555;SDS011;11956;53.184;8.578;2022-08-11T08:18:01;3.90;;;1.52;;
23555;SDS011;11956;53.184;8.578;2022-08-11T08:21:05;3.90;;;1.40;;
23555;SDS011;11956;53.184;8.578;2022-08-11T08:24:13;2.70;;;1.50;;
23555;SDS011;11956;53.184;8.578;2022-08-11T08:27:15;2.58;;;1.40;;
23555;SDS011;11956;53.184;8.578;2022-08-11T08:33:36;2.70;;;1.40;;
23555;SDS011;11956;53.184;8.578;2022-08-11T08:36:42;1.63;;;1.20;;
23555;SDS011;11956;53.184;8.578;2022-08-11T08:39:47;2.55;;;1.10;;
23555;SDS011;11956;53.184;8.578;2022-08-11T08:42:54;1.55;;;1.02;;
23555;SDS011;11956;53.184;8.578;2022-08-11T08:46:03;6.00;;;1.40;;
23555;SDS011;11956;53.184;8.578;2022-08-11T08:49:09;2.35;;;1.00;;
23555;SDS011;11956;53.184;8.578;2022-08-11T08:52:22;2.72;;;1.38;;
23555;SDS011;11956;53.184;8.578;2022-08-11T08:55:26;2.72;;;1.00;;
23555;SDS011;11956;53.184;8.578;2022-08-11T08:58:29;3.67;;;0.90;;
23555;SDS011;11956;53.184;8.578;2022-08-11T09:01:39;1.75;;;0.88;;
23555;SDS011;11956;53.184;8.578;2022-08-11T09:05:03;1.27;;;0.80;;
23555;SDS011;11956;53.184;8.578;2022-08-11T09:08:08;3.28;;;0.93;;
23555;SDS011;11956;53.184;8.578;2022-08-11T09:11:10;0.90;;;0.63;;
23555;SDS011;11956;53.184;8.578;2022-08-11T09:14:32;3.30;;;0.95;;
23555;SDS011;11956;53.184;8.578;2022-08-11T09:17:55;3.72;;;0.95;;
23555;SDS011;11956;53.184;8.578;2022-08-11T09:21:05;0.93;;;0.65;;
23555;SDS011;11956;53.184;8.578;2022-08-11T09:24:06;2.40;;;0.80;;
23555;SDS011;11956;53.184;8.578;2022-08-11T09:27:26;2.67;;;0.80;;
23555;SDS011;11956;53.184;8.578;2022-08-11T09:30:27;2.13;;;0.98;;
23555;SDS011;11956;53.184;8.578;2022-08-11T09:36:30;4.00;;;1.10;;
23555;SDS011;11956;53.184;8.578;2022-08-11T09:39:50;1.48;;;0.90;;
23555;SDS011;11956;53.184;8.578;2022-08-11T09:43:10;4.47;;;1.00;;
23555;SDS011;11956;53.184;8.578;2022-08-11T09:46:33;3.60;;;0.80;;
23555;SDS011;11956;53.184;8.578;2022-08-11T09:49:34;1.98;;;0.95;;
23555;SDS011;11956;53.184;8.578;2022-08-11T09:52:38;3.17;;;1.02;;
23555;SDS011;11956;53.184;8.578;2022-08-11T09:55:40;3.90;;;1.10;;
23555;SDS011;11956;53.184;8.578;2022-08-11T09:58:43;2.00;;;0.90;;
23555;SDS011;11956;53.184;8.578;2022-08-11T10:01:44;2.65;;;1.30;;
23555;SDS011;11956;53.184;8.578;2022-08-11T10:04:49;1.85;;;1.15;;
23555;SDS011;11956;53.184;8.578;2022-08-11T10:08:16;3.65;;;1.10;;
23555;SDS011;11956;53.184;8.578;2022-08-11T10:11:20;3.47;;;1.40;;
23555;SDS011;11956;53.184;8.578;2022-08-11T10:14:23;4.78;;;1.25;;
23555;SDS011;11956;53.184;8.578;2022-08-11T10:17:46;3.13;;;1.30;;
23555;SDS011;11956;53.184;8.578;2022-08-11T10:21:13;3.05;;;1.00;;
23555;SDS011;11956;53.184;8.578;2022-08-11T10:24:24;1.27;;;0.95;;
23555;SDS011;11956;53.184;8.578;2022-08-11T10:27:44;1.75;;;1.10;;
23555;SDS011;11956;53.184;8.578;2022-08-11T10:30:46;4.50;;;1.20;;
23555;SDS011;11956;53.184;8.578;2022-08-11T10:34:06;3.03;;;1.00;;
23555;SDS011;11956;53.184;8.578;2022-08-11T10:37:08;2.75;;;1.00;;
23555;SDS011;11956;53.184;8.578;2022-08-11T10:40:14;1.70;;;0.90;;
23555;SDS011;11956;53.184;8.578;2022-08-11T10:43:18;3.25;;;1.40;;
23555;SDS011;11956;53.184;8.578;2022-08-11T10:46:20;1.98;;;1.20;;
23555;SDS011;11956;53.184;8.578;2022-08-11T10:49:41;2.42;;;1.00;;
23555;SDS011;11956;53.184;8.578;2022-08-11T10:52:43;2.53;;;1.30;;
23555;SDS011;11956;53.184;8.578;2022-08-11T10:56:05;2.85;;;1.20;;
23555;SDS011;11956;53.184;8.578;2022-08-11T10:59:26;3.92;;;1.20;;
23555;SDS011;11956;53.184;8.578;2022-08-11T11:02:29;2.45;;;0.95;;
23555;SDS011;11956;53.184;8.578;2022-08-11T11:05:30;3.58;;;1.02;;
23555;SDS011;11956;53.184;8.578;2022-08-11T11:08:32;2.75;;;1.08;;
23555;SDS011;11956;53.184;8.578;2022-08-11T11:11:55;2.40;;;0.90;;
23555;SDS011;11956;53.184;8.578;2022-08-11T11:15:22;1.95;;;1.00;;
23555;SDS011;11956;53.184;8.578;2022-08-11T11:18:42;5.13;;;1.10;;
23555;SDS011;11956;53.184;8.578;2022-08-11T11:21:47;3.05;;;1.10;;
23555;SDS011;11956;53.184;8.578;2022-08-11T11:24:57;2.67;;;1.08;;
23555;SDS011;11956;53.184;8.578;2022-08-11T11:28:18;2.47;;;1.17;;
23555;SDS011;11956;53.184;8.578;2022-08-11T11:38:15;4.18;;;1.27;;
23555;SDS011;11956;53.184;8.578;2022-08-11T11:41:17;2.90;;;1.10;;
23555;SDS011;11956;53.184;8.578;2022-08-11T11:44:24;3.28;;;1.00;;
23555;SDS011;11956;53.184;8.578;2022-08-11T11:47:25;3.05;;;1.17;;
23555;SDS011;11956;53.184;8.578;2022-08-11T11:50:27;1.65;;;1.08;;
23555;SDS011;11956;53.184;8.578;2022-08-11T11:53:36;4.25;;;1.25;;
23555;SDS011;11956;53.184;8.578;2022-08-11T11:56:37;0.98;;;0.88;;
23555;SDS011;11956;53.184;8.578;2022-08-11T11:59:38;2.70;;;1.08;;
23555;SDS011;11956;53.184;8.578;2022-08-11T12:02:58;2.13;;;0.80;;
23555;SDS011;11956;53.184;8.578;2022-08-11T12:06:04;4.75;;;1.20;;
23555;SDS011;11956;53.184;8.578;2022-08-11T12:09:07;3.15;;;1.20;;
23555;SDS011;11956;53.184;8.578;2022-08-11T12:12:14;4.22;;;1.52;;
23555;SDS011;11956;53.184;8.578;2022-08-11T12:15:34;1.33;;;0.93;;
23555;SDS011;11956;53.184;8.578;2022-08-11T12:18:37;3.15;;;1.05;;
23555;SDS011;11956;53.184;8.578;2022-08-11T12:21:40;2.40;;;1.60;;
23555;SDS011;11956;53.184;8.578;2022-08-11T12:25:02;2.88;;;1.20;;
23555;SDS011;11956;53.184;8.578;2022-08-11T12:28:23;1.70;;;0.80;;
23555;SDS011;11956;53.184;8.578;2022-08-11T12:31:30;2.30;;;0.93;;
23555;SDS011;11956;53.184;8.578;2022-08-11T12:34:32;2.53;;;0.95;;
23555;SDS011;11956;53.184;8.578;2022-08-11T12:37:44;1.73;;;1.02;;
23555;SDS011;11956;53.184;8.578;2022-08-11T12:40:49;1.40;;;0.80;;
23555;SDS011;11956;53.184;8.578;2022-08-11T12:44:10;1.00;;;0.93;;
23555;SDS011;11956;53.184;8.578;2022-08-11T12:47:31;2.00;;;1.00;;
23555;SDS011;11956;53.184;8.578;2022-08-11T12:50:54;1.80;;;1.00;;
23555;SDS011;11956;53.184;8.578;2022-08-11T12:54:24;3.00;;;1.10;;
23555;SDS011;11956;53.184;8.578;2022-08-11T12:57:44;3.45;;;0.93;;
23555;SDS011;11956;53.184;8.578;2022-08-11T13:01:05;4.38;;;0.90;;
23555;SDS011;11956;53.184;8.578;2022-08-11T13:04:25;1.70;;;0.65;;
23555;SDS011;11956;53.184;8.578;2022-08-11T13:07:46;0.90;;;0.90;;
23555;SDS011;11956;53.184;8.578;2022-08-11T13:10:48;2.17;;;0.90;;
23555;SDS011;11956;53.184;8.578;2022-08-11T13:14:09;3.08;;;1.20;;
23555;SDS011;11956;53.184;8.578;2022-08-11T13:17:10;4.60;;;1.15;;
23555;SDS011;11956;53.184;8.578;2022-08-11T13:20:22;2.78;;;0.85;;
23555;SDS011;11956;53.184;8.578;2022-08-11T13:23:24;3.65;;;0.90;;
23555;SDS011;11956;53.184;8.578;2022-08-11T13:26:26;6.35;;;0.90;;
23555;SDS011;11956;53.184;8.578;2022-08-11T13:29:27;2.55;;;1.05;;
23555;SDS011;11956;53.184;8.578;2022-08-11T13:32:29;1.10;;;0.80;;
23555;SDS011;11956;53.184;8.578;2022-08-11T13:35:30;2.42;;;1.00;;
23555;SDS011;11956;53.184;8.578;2022-08-11T13:38:32;1.73;;;1.00;;
23555;SDS011;11956;53.184;8.578;2022-08-11T13:41:34;2.35;;;0.73;;
23555;SDS011;11956;53.184;8.578;2022-08-11T13:44:38;1.42;;;1.02;;
23555;SDS011;11956;53.184;8.578;2022-08-11T13:47:41;4.00;;;1.05;;
23555;SDS011;11956;53.184;8.578;2022-08-11T13:50:43;5.47;;;1.02;;
23555;SDS011;11956;53.184;8.578;2022-08-11T13:54:07;2.15;;;0.95;;
23555;SDS011;11956;53.184;8.578;2022-08-11T13:57:30;2.60;;;0.93;;
23555;SDS011;11956;53.184;8.578;2022-08-11T14:00:33;1.75;;;1.00;;
23555;SDS011;11956;53.184;8.578;2022-08-11T14:03:34;0.82;;;0.80;;
23555;SDS011;11956;53.184;8.578;2022-08-11T14:06:40;3.10;;;1.00;;
23555;SDS011;11956;53.184;8.578;2022-08-11T14:09:59;1.48;;;0.82;;
23555;SDS011;11956;53.184;8.578;2022-08-11T14:13:11;2.03;;;0.85;;
23555;SDS011;11956;53.184;8.578;2022-08-11T14:16:37;3.00;;;1.10;;
23555;SDS011;11956;53.184;8.578;2022-08-11T14:19:42;2.78;;;1.13;;
23555;SDS011;11956;53.184;8.578;2022-08-11T14:22:46;1.33;;;0.90;;
23555;SDS011;11956;53.184;8.578;2022-08-11T14:25:50;2.78;;;1.00;;
23555;SDS011;11956;53.184;8.578;2022-08-11T14:29:14;2.60;;;1.10;;
23555;SDS011;11956;53.184;8.578;2022-08-11T14:32:21;2.55;;;1.10;;
23555;SDS011;11956;53.184;8.578;2022-08-11T14:35:24;3.55;;;1.05;;
23555;SDS011;11956;53.184;8.578;2022-08-11T14:38:27;1.42;;;0.90;;
23555;SDS011;11956;53.184;8.578;2022-08-11T14:41:29;2.85;;;1.10;;
23555;SDS011;11956;53.184;8.578;2022-08-11T14:44:50;2.50;;;1.10;;
23555;SDS011;11956;53.184;8.578;2022-08-11T14:48:02;2.38;;;0.95;;
23555;SDS011;11956;53.184;8.578;2022-08-11T14:51:08;2.95;;;1.08;;
23555;SDS011;11956;53.184;8.578;2022-08-11T14:54:09;2.17;;;1.00;;
23555;SDS011;11956;53.184;8.578;2022-08-11T14:57:31;4.70;;;1.20;;
23555;SDS011;11956;53.184;8.578;2022-08-11T15:00:36;2.53;;;1.20;;
23555;SDS011;11956;53.184;8.578;2022-08-11T15:03:40;2.25;;;1.25;;
23555;SDS011;11956;53.184;8.578;2022-08-11T15:06:41;1.48;;;1.25;;
23555;SDS011;11956;53.184;8.578;2022-08-11T15:09:43;1.90;;;0.77;;
23555;SDS011;11956;53.184;8.578;2022-08-11T15:12:45;2.17;;;1.40;;
23555;SDS011;11956;53.184;8.578;2022-08-11T15:15:47;1.10;;;1.00;;
23555;SDS011;11956;53.184;8.578;2022-08-11T15:19:07;4.35;;;1.60;;
23555;SDS011;11956;53.184;8.578;2022-08-11T15:22:08;1.80;;;1.15;;
23555;SDS011;11956;53.184;8.578;2022-08-11T15:25:28;1.98;;;1.10;;
23555;SDS011;11956;53.184;8.578;2022-08-11T15:28:35;3.38;;;1.30;;
23555;SDS011;11956;53.184;8.578;2022-08-11T15:32:00;4.55;;;1.38;;
23555;SDS011;11956;53.184;8.578;2022-08-11T15:35:19;3.92;;;1.30;;
23555;SDS011;11956;53.184;8.578;2022-08-11T15:38:40;2.97;;;1.20;;
23555;SDS011;11956;53.184;8.578;2022-08-11T15:42:01;4.43;;;1.30;;
23555;SDS011;11956;53.184;8.578;2022-08-11T15:45:26;1.27;;;1.17;;
23555;SDS011;11956;53.184;8.578;2022-08-11T15:49:12;3.30;;;1.40;;
23555;SDS011;11956;53.184;8.578;2022-08-11T15:52:17;4.35;;;1.60;;
23555;SDS011;11956;53.184;8.578;2022-08-11T15:58:33;4.32;;;1.23;;
23555;SDS011;11956;53.184;8.578;2022-08-11T16:01:59;2.15;;;1.40;;
23555;SDS011;11956;53.184;8.578;2022-08-11T16:05:22;3.10;;;1.25;;
23555;SDS011;11956;53.184;8.578;2022-08-11T16:08:25;1.52;;;1.30;;
23555;SDS011;11956;53.184;8.578;2022-08-11T16:11:28;3.22;;;1.00;;
23555;SDS011;11956;53.184;8.578;2022-08-11T16:14:35;2.58;;;1.20;;
23555;SDS011;11956;53.184;8.578;2022-08-11T16:18:00;4.55;;;1.35;;
23555;SDS011;11956;53.184;8.578;2022-08-11T16:21:09;2.03;;;1.33;;
23555;SDS011;11956;53.184;8.578;2022-08-11T16:24:16;3.25;;;1.33;;
23555;SDS011;11956;53.184;8.578;2022-08-11T16:27:20;4.18;;;1.48;;
23555;SDS011;11956;53.184;8.578;2022-08-11T16:30:23;3.13;;;1.55;;
23555;SDS011;11956;53.184;8.578;2022-08-11T16:33:26;4.53;;;1.20;;
23555;SDS011;11956;53.184;8.578;2022-08-11T16:36:29;2.63;;;1.40;;
23555;SDS011;11956;53.184;8.578;2022-08-11T16:39:53;4.28;;;1.40;;
23555;SDS011;11956;53.184;8.578;2022-08-11T16:42:54;4.00;;;1.65;;
23555;SDS011;11956;53.184;8.578;2022-08-11T16:46:16;2.08;;;1.42;;
23555;SDS011;11956;53.184;8.578;2022-08-11T16:49:38;5.80;;;1.50;;
23555;SDS011;11956;53.184;8.578;2022-08-11T16:52:46;5.68;;;1.55;;
23555;SDS011;11956;53.184;8.578;2022-08-11T16:55:47;2.22;;;1.30;;
23555;SDS011;11956;53.184;8.578;2022-08-11T16:58:54;3.45;;;1.20;;
23555;SDS011;11956;53.184;8.578;2022-08-11T17:02:16;2.65;;;1.45;;
23555;SDS011;11956;53.184;8.578;2022-08-11T17:05:41;3.30;;;1.40;;
23555;SDS011;11956;53.184;8.578;2022-08-11T17:09:09;2.42;;;1.45;;
23555;SDS011;11956;53.184;8.578;2022-08-11T17:12:32;2.92;;;1.33;;
23555;SDS011;11956;53.184;8.578;2022-08-11T17:15:55;5.18;;;1.33;;
23555;SDS011;11956;53.184;8.578;2022-08-11T17:19:23;3.10;;;1.20;;
23555;SDS011;11956;53.184;8.578;2022-08-11T17:22:28;3.33;;;1.52;;
23555;SDS011;11956;53.184;8.578;2022-08-11T17:25:49;1.95;;;1.50;;
23555;SDS011;11956;53.184;8.578;2022-08-11T17:28:53;1.90;;;1.23;;
23555;SDS011;11956;53.184;8.578;2022-08-11T17:32:00;4.22;;;1.52;;
23555;SDS011;11956;53.184;8.578;2022-08-11T17:35:25;5.13;;;1.58;;
23555;SDS011;11956;53.184;8.578;2022-08-11T17:38:30;1.20;;;1.10;;
23555;SDS011;11956;53.184;8.578;2022-08-11T17:41:33;2.50;;;1.27;;
23555;SDS011;11956;53.184;8.578;2022-08-11T17:44:53;2.50;;;1.50;;
23555;SDS011;11956;53.184;8.578;2022-08-11T17:48:13;3.55;;;1.25;;
23555;SDS011;11956;53.184;8.578;2022-08-11T17:51:25;3.58;;;1.83;;
23555;SDS011;11956;53.184;8.578;2022-08-11T17:54:47;2.50;;;1.15;;
23555;SDS011;11956;53.184;8.578;2022-08-11T17:58:09;2.50;;;1.30;;
23555;SDS011;11956;53.184;8.578;2022-08-11T18:01:31;1.98;;;1.25;;
23555;SDS011;11956;53.184;8.578;2022-08-11T18:04:35;3.78;;;1.40;;
23555;SDS011;11956;53.184;8.578;2022-08-11T18:07:37;5.30;;;1.63;;
23555;SDS011;11956;53.184;8.578;2022-08-11T18:11:00;3.10;;;1.30;;
23555;SDS011;11956;53.184;8.578;2022-08-11T18:14:20;3.92;;;1.55;;
23555;SDS011;11956;53.184;8.578;2022-08-11T18:17:41;2.00;;;1.50;;
23555;SDS011;11956;53.184;8.578;2022-08-11T18:21:01;2.55;;;1.15;;
23555;SDS011;11956;53.184;8.578;2022-08-11T18:24:23;2.15;;;1.38;;
23555;SDS011;11956;53.184;8.578;2022-08-11T18:27:45;3.65;;;1.20;;
23555;SDS011;11956;53.184;8.578;2022-08-11T18:31:06;2.75;;;1.30;;
23555;SDS011;11956;53.184;8.578;2022-08-11T18:34:32;1.83;;;1.33;;
23555;SDS011;11956;53.184;8.578;2022-08-11T18:37:58;1.90;;;1.35;;
23555;SDS011;11956;53.184;8.578;2022-08-11T18:41:25;3.42;;;1.60;;
23555;SDS011;11956;53.184;8.578;2022-08-11T18:44:47;5.97;;;1.40;;
23555;SDS011;11956;53.184;8.578;2022-08-11T18:48:16;6.45;;;1.88;;
23555;SDS011;11956;53.184;8.578;2022-08-11T18:51:39;3.28;;;1.35;;
23555;SDS011;11956;53.184;8.578;2022-08-11T18:55:04;3.97;;;1.40;;
23555;SDS011;11956;53.184;8.578;2022-08-11T18:58:31;3.00;;;1.25;;
23555;SDS011;11956;53.184;8.578;2022-08-11T19:01:51;2.63;;;1.40;;
23555;SDS011;11956;53.184;8.578;2022-08-11T19:05:13;2.15;;;1.50;;
23555;SDS011;11956;53.184;8.578;2022-08-11T19:08:36;3.13;;;1.45;;
23555;SDS011;11956;53.184;8.578;2022-08-11T19:12:00;2.80;;;1.45;;
23555;SDS011;11956;53.184;8.578;2022-08-11T19:15:21;3.97;;;1.50;;
23555;SDS011;11956;53.184;8.578;2022-08-11T19:18:41;2.97;;;1.40;;
23555;SDS011;11956;53.184;8.578;2022-08-11T19:22:03;3.83;;;1.75;;
23555;SDS011;11956;53.184;8.578;2022-08-11T19:25:22;4.00;;;1.40;;
23555;SDS011;11956;53.184;8.578;2022-08-11T19:28:45;5.75;;;1.50;;
23555;SDS011;11956;53.184;8.578;2022-08-11T19:32:07;4.63;;;1.40;;
23555;SDS011;11956;53.184;8.578;2022-08-11T19:35:29;4.63;;;1.70;;
23555;SDS011;11956;53.184;8.578;2022-08-11T19:38:50;4.50;;;1.45;;
23555;SDS011;11956;53.184;8.578;2022-08-11T19:42:12;3.70;;;1.60;;
23555;SDS011;11956;53.184;8.578;2022-08-11T19:45:33;3.05;;;1.58;;
23555;SDS011;11956;53.184;8.578;2022-08-11T19:48:54;6.75;;;1.40;;
23555;SDS011;11956;53.184;8.578;2022-08-11T19:52:16;2.03;;;1.70;;
23555;SDS011;11956;53.184;8.578;2022-08-11T19:55:36;6.40;;;1.40;;
23555;SDS011;11956;53.184;8.578;2022-08-11T19:58:57;4.18;;;1.52;;
23555;SDS011;11956;53.184;8.578;2022-08-11T20:02:17;2.63;;;1.50;;
23555;SDS011;11956;53.184;8.578;2022-08-11T20:05:36;3.97;;;1.45;;
23555;SDS011;11956;53.184;8.578;2022-08-11T20:08:59;5.82;;;1.50;;
23555;SDS011;11956;53.184;8.578;2022-08-11T20:12:20;2.72;;;1.70;;
23555;SDS011;11956;53.184;8.578;2022-08-11T20:15:41;2.42;;;1.40;;
23555;SDS011;11956;53.184;8.578;2022-08-11T20:19:02;3.60;;;1.40;;
23555;SDS011;11956;53.184;8.578;2022-08-11T20:22:23;3.13;;;1.63;;
23555;SDS011;11956;53.184;8.578;2022-08-11T20:25:44;3.92;;;1.50;;
23555;SDS011;11956;53.184;8.578;2022-08-11T20:29:06;4.50;;;1.52;;
23555;SDS011;11956;53.184;8.578;2022-08-11T20:32:26;5.43;;;1.63;;
23555;SDS011;11956;53.184;8.578;2022-08-11T20:35:46;4.20;;;1.67;;
23555;SDS011;11956;53.184;8.578;2022-08-11T20:39:07;2.85;;;1.75;;
23555;SDS011;11956;53.184;8.578;2022-08-11T20:42:27;5.47;;;1.50;;
23555;SDS011;11956;53.184;8.578;2022-08-11T20:45:50;3.22;;;1.50;;
23555;SDS011;11956;53.184;8.578;2022-08-11T20:49:10;3.60;;;1.52;;
23555;SDS011;11956;53.184;8.578;2022-08-11T20:52:31;3.47;;;1.20;;
23555;SDS011;11956;53.184;8.578;2022-08-11T20:55:52;1.48;;;1.30;;
23555;SDS011;11956;53.184;8.578;2022-08-11T20:59:13;4.35;;;1.73;;
23555;SDS011;11956;53.184;8.578;2022-08-11T21:02:35;5.97;;;1.40;;
23555;SDS011;11956;53.184;8.578;2022-08-11T21:05:55;2.70;;;1.77;;
23555;SDS011;11956;53.184;8.578;2022-08-11T21:09:16;5.45;;;1.92;;
23555;SDS011;11956;53.184;8.578;2022-08-11T21:12:38;3.00;;;1.65;;
23555;SDS011;11956;53.184;8.578;2022-08-11T21:16:04;3.50;;;1.63;;
23555;SDS011;11956;53.184;8.578;2022-08-11T21:19:27;2.70;;;1.67;;
23555;SDS011;11956;53.184;8.578;2022-08-11T21:22:51;3.10;;;1.48;;
23555;SDS011;11956;53.184;8.578;2022-08-11T21:26:17;3.75;;;2.00;;
23555;SDS011;11956;53.184;8.578;2022-08-11T21:29:39;2.78;;;1.50;;
23555;SDS011;11956;53.184;8.578;2022-08-11T21:33:00;4.35;;;1.60;;
23555;SDS011;11956;53.184;8.578;2022-08-11T21:36:21;4.32;;;1.58;;
23555;SDS011;11956;53.184;8.578;2022-08-11T21:39:44;1.42;;;1.30;;
23555;SDS011;11956;53.184;8.578;2022-08-11T21:43:07;2.17;;;1.50;;
23555;SDS011;11956;53.184;8.578;2022-08-11T21:46:28;3.13;;;1.60;;
23555;SDS011;11956;53.184;8.578;2022-08-11T21:49:50;3.63;;;1.50;;
23555;SDS011;11956;53.184;8.578;2022-08-11T21:53:10;2.63;;;1.52;;
23555;SDS011;11956;53.184;8.578;2022-08-11T21:56:30;1.90;;;1.45;;
23555;SDS011;11956;53.184;8.578;2022-08-11T21:59:52;4.97;;;1.40;;
23555;SDS011;11956;53.184;8.578;2022-08-11T22:03:14;2.47;;;1.60;;
23555;SDS011;11956;53.184;8.578;2022-08-11T22:06:36;1.85;;;1.52;;
23555;SDS011;11956;53.184;8.578;2022-08-11T22:09:56;7.05;;;1.60;;
23555;SDS011;11956;53.184;8.578;2022-08-11T22:13:16;4.50;;;1.73;;
23555;SDS011;11956;53.184;8.578;2022-08-11T22:16:35;7.75;;;1.52;;
23555;SDS011;11956;53.184;8.578;2022-08-11T22:19:54;1.92;;;1.50;;
23555;SDS011;11956;53.184;8.578;2022-08-11T22:23:17;4.63;;;1.33;;
23555;SDS011;11956;53.184;8.578;2022-08-11T22:26:37;2.88;;;1.35;;
23555;SDS011;11956;53.184;8.578;2022-08-11T22:29:57;5.65;;;1.50;;
23555;SDS011;11956;53.184;8.578;2022-08-11T22:33:17;2.60;;;1.25;;
23555;SDS011;11956;53.184;8.578;2022-08-11T22:36:39;4.85;;;1.60;;
23555;SDS011;11956;53.184;8.578;2022-08-11T22:40:00;4.13;;;1.40;;
23555;SDS011;11956;53.184;8.578;2022-08-11T22:43:21;3.67;;;1.30;;
23555;SDS011;11956;53.184;8.578;2022-08-11T22:46:41;1.77;;;1.25;;
23555;SDS011;11956;53.184;8.578;2022-08-11T22:50:01;5.20;;;1.23;;
23555;SDS011;11956;53.184;8.578;2022-08-11T22:53:24;3.65;;;1.40;;
23555;SDS011;11956;53.184;8.578;2022-08-11T22:56:45;3.13;;;1.30;;
23555;SDS011;11956;53.184;8.578;2022-08-11T23:00:06;3.25;;;1.30;;
23555;SDS011;11956;53.184;8.578;2022-08-11T23:03:26;4.00;;;1.30;;
23555;SDS011;11956;53.184;8.578;2022-08-11T23:06:47;2.08;;;1.40;;
23555;SDS011;11956;53.184;8.578;2022-08-11T23:10:07;5.47;;;1.52;;
23555;SDS011;11956;53.184;8.578;2022-08-11T23:13:28;2.70;;;1.50;;
23555;SDS011;11956;53.184;8.578;2022-08-11T23:16:50;3.47;;;1.30;;